sensor_id;sensor_type;location;lat;lon;timestamp;pressure;altitude;pressure_sealevel;temperature;humidity
50087;BME280;35967;50.718;7.050;2023-08-06T00:00:12;99643.16;;;16.23;100.00
50087;BME280;35967;50.718;7.050;2023-08-06T00:10:17;99648.25;;;16.25;100.00
50087;BME280;35967;50.718;7.050;2023-08-06T00:20:21;99663.47;;;16.02;100.00
50087;BME280;35967;50.718;7.050;2023-08-06T00:30:24;99661.72;;;15.88;100.00
50087;BME280;35967;50.718;7.050;2023-08-06T00:40:29;99657.44;;;15.87;100.00
50087;BME280;35967;50.718;7.050;2023-08-06T00:50:32;99637.69;;;15.99;100.00
50087;BME280;35967;50.718;7.050;2023-08-06T01:00:37;99629.19;;;15.97;100.00
50087;BME280;35967;50.718;7.050;2023-08-06T01:10:51;99623.44;;;15.92;100.00
50087;BME280;35967;50.718;7.050;2023-08-06T01:21:00;99620.47;;;15.84;100.00
50087;BME280;35967;50.718;7.050;2023-08-06T01:31:04;99611.75;;;15.85;100.00
50087;BME280;35967;50.718;7.050;2023-08-06T01:41:13;99611.28;;;15.78;100.00
50087;BME280;35967;50.718;7.050;2023-08-06T01:51:16;99593.19;;;15.76;100.00
50087;BME280;35967;50.718;7.050;2023-08-06T02:01:21;99583.56;;;15.78;100.00
50087;BME280;35967;50.718;7.050;2023-08-06T02:11:24;99572.03;;;15.84;100.00
50087;BME280;35967;50.718;7.050;2023-08-06T02:21:29;99568.00;;;15.93;100.00
50087;BME280;35967;50.718;7.050;2023-08-06T02:31:32;99556.22;;;15.73;100.00
50087;BME280;35967;50.718;7.050;2023-08-06T02:41:37;99556.13;;;15.74;100.00
50087;BME280;35967;50.718;7.050;2023-08-06T02:51:40;99548.94;;;15.65;100.00
50087;BME280;35967;50.718;7.050;2023-08-06T03:01:46;99535.97;;;15.65;100.00
50087;BME280;35967;50.718;7.050;2023-08-06T03:11:59;99522.44;;;15.60;100.00
50087;BME280;35967;50.718;7.050;2023-08-06T03:22:13;99517.06;;;15.63;100.00
50087;BME280;35967;50.718;7.050;2023-08-06T03:32:16;99500.50;;;15.37;100.00
50087;BME280;35967;50.718;7.050;2023-08-06T03:42:21;99501.06;;;15.42;100.00
50087;BME280;35967;50.718;7.050;2023-08-06T03:52:30;99492.63;;;15.38;100.00
50087;BME280;35967;50.718;7.050;2023-08-06T04:02:34;99503.25;;;15.48;100.00
50087;BME280;35967;50.718;7.050;2023-08-06T04:12:43;99501.13;;;15.55;100.00
50087;BME280;35967;50.718;7.050;2023-08-06T04:22:57;99498.16;;;15.61;100.00
50087;BME280;35967;50.718;7.050;2023-08-06T04:33:04;99496.91;;;15.39;100.00
50087;BME280;35967;50.718;7.050;2023-08-06T04:43:10;99502.09;;;15.25;100.00
50087;BME280;35967;50.718;7.050;2023-08-06T04:53:14;99496.81;;;15.26;100.00
50087;BME280;35967;50.718;7.050;2023-08-06T05:03:19;99503.66;;;15.27;100.00
50087;BME280;35967;50.718;7.050;2023-08-06T05:13:22;99499.13;;;15.31;100.00
50087;BME280;35967;50.718;7.050;2023-08-06T05:23:30;99496.50;;;15.45;100.00
50087;BME280;35967;50.718;7.050;2023-08-06T05:33:37;99516.69;;;15.55;100.00
50087;BME280;35967;50.718;7.050;2023-08-06T05:43:42;99515.41;;;15.48;100.00
50087;BME280;35967;50.718;7.050;2023-08-06T05:53:51;99522.41;;;15.74;100.00
50087;BME280;35967;50.718;7.050;2023-08-06T06:03:56;99523.91;;;15.78;100.00
50087;BME280;35967;50.718;7.050;2023-08-06T06:13:59;99534.56;;;15.59;100.00
50087;BME280;35967;50.718;7.050;2023-08-06T06:24:14;99540.38;;;15.77;100.00
50087;BME280;35967;50.718;7.050;2023-08-06T06:34:24;99549.09;;;16.05;100.00
50087;BME280;35967;50.718;7.050;2023-08-06T06:44:29;99557.75;;;16.19;100.00
50087;BME280;35967;50.718;7.050;2023-08-06T06:54:32;99560.88;;;16.24;100.00
50087;BME280;35967;50.718;7.050;2023-08-06T07:04:37;99560.53;;;16.43;100.00
50087;BME280;35967;50.718;7.050;2023-08-06T07:14:46;99571.00;;;16.69;100.00
50087;BME280;35967;50.718;7.050;2023-08-06T07:24:51;99579.38;;;16.87;100.00
50087;BME280;35967;50.718;7.050;2023-08-06T07:34:54;99590.97;;;16.96;100.00
50087;BME280;35967;50.718;7.050;2023-08-06T07:45:02;99588.25;;;16.97;100.00
50087;BME280;35967;50.718;7.050;2023-08-06T07:55:07;99592.03;;;16.79;100.00
50087;BME280;35967;50.718;7.050;2023-08-06T08:05:12;99592.59;;;16.84;100.00
50087;BME280;35967;50.718;7.050;2023-08-06T08:15:16;99601.81;;;16.88;100.00
50087;BME280;35967;50.718;7.050;2023-08-06T08:25:21;99612.94;;;17.17;100.00
50087;BME280;35967;50.718;7.050;2023-08-06T08:35:25;99613.56;;;17.21;100.00
50087;BME280;35967;50.718;7.050;2023-08-06T08:45:30;99617.91;;;16.95;100.00
50087;BME280;35967;50.718;7.050;2023-08-06T08:55:38;99619.06;;;16.76;100.00
50087;BME280;35967;50.718;7.050;2023-08-06T09:05:44;99625.81;;;16.66;100.00
50087;BME280;35967;50.718;7.050;2023-08-06T09:15:55;99632.09;;;16.62;100.00
50087;BME280;35967;50.718;7.050;2023-08-06T09:25:59;99655.72;;;15.88;100.00
50087;BME280;35967;50.718;7.050;2023-08-06T09:36:08;99678.28;;;15.71;100.00
50087;BME280;35967;50.718;7.050;2023-08-06T09:46:13;99679.72;;;15.46;100.00
50087;BME280;35967;50.718;7.050;2023-08-06T09:56:19;99693.19;;;15.23;100.00
50087;BME280;35967;50.718;7.050;2023-08-06T10:06:26;99715.47;;;14.95;100.00
50087;BME280;35967;50.718;7.050;2023-08-06T10:16:29;99756.03;;;14.80;100.00
50087;BME280;35967;50.718;7.050;2023-08-06T10:26:35;99766.31;;;14.14;100.00
50087;BME280;35967;50.718;7.050;2023-08-06T10:36:44;99782.03;;;13.94;100.00
50087;BME280;35967;50.718;7.050;2023-08-06T10:46:49;99776.34;;;13.69;100.00
50087;BME280;35967;50.718;7.050;2023-08-06T10:56:53;99816.84;;;13.69;100.00
50087;BME280;35967;50.718;7.050;2023-08-06T11:06:59;99827.56;;;13.44;100.00
50087;BME280;35967;50.718;7.050;2023-08-06T11:17:03;99861.78;;;13.49;100.00
50087;BME280;35967;50.718;7.050;2023-08-06T11:27:13;99858.53;;;13.63;100.00
50087;BME280;35967;50.718;7.050;2023-08-06T11:37:20;99868.28;;;13.75;100.00
50087;BME280;35967;50.718;7.050;2023-08-06T11:47:26;99884.53;;;13.96;100.00
50087;BME280;35967;50.718;7.050;2023-08-06T11:57:31;99904.31;;;13.97;100.00
50087;BME280;35967;50.718;7.050;2023-08-06T12:07:40;99912.22;;;14.12;100.00
50087;BME280;35967;50.718;7.050;2023-08-06T12:17:46;99916.88;;;14.23;100.00
50087;BME280;35967;50.718;7.050;2023-08-06T12:27:51;99931.13;;;14.31;100.00
50087;BME280;35967;50.718;7.050;2023-08-06T12:37:54;99930.59;;;14.42;100.00
50087;BME280;35967;50.718;7.050;2023-08-06T12:48:08;99935.63;;;14.45;100.00
50087;BME280;35967;50.718;7.050;2023-08-06T12:58:19;99938.50;;;14.39;100.00
50087;BME280;35967;50.718;7.050;2023-08-06T13:08:23;99948.13;;;14.37;100.00
50087;BME280;35967;50.718;7.050;2023-08-06T13:18:26;99972.09;;;14.58;100.00
50087;BME280;35967;50.718;7.050;2023-08-06T13:28:32;99974.16;;;14.51;100.00
50087;BME280;35967;50.718;7.050;2023-08-06T13:38:35;99989.47;;;14.39;100.00
50087;BME280;35967;50.718;7.050;2023-08-06T13:48:40;99996.03;;;14.46;100.00
50087;BME280;35967;50.718;7.050;2023-08-06T13:58:43;100002.75;;;14.50;100.00
50087;BME280;35967;50.718;7.050;2023-08-06T14:08:50;100012.09;;;14.52;100.00
50087;BME280;35967;50.718;7.050;2023-08-06T14:18:53;100031.50;;;14.44;100.00
50087;BME280;35967;50.718;7.050;2023-08-06T14:28:57;100032.06;;;14.50;100.00
50087;BME280;35967;50.718;7.050;2023-08-06T14:39:00;100040.06;;;14.63;100.00
50087;BME280;35967;50.718;7.050;2023-08-06T14:49:10;100046.41;;;14.75;100.00
50087;BME280;35967;50.718;7.050;2023-08-06T14:59:14;100056.03;;;14.91;100.00
50087;BME280;35967;50.718;7.050;2023-08-06T15:09:18;100059.31;;;14.94;100.00
50087;BME280;35967;50.718;7.050;2023-08-06T15:19:27;100062.75;;;14.77;100.00
50087;BME280;35967;50.718;7.050;2023-08-06T15:29:31;100086.66;;;14.82;100.00
50087;BME280;35967;50.718;7.050;2023-08-06T15:39:35;100097.94;;;14.81;100.00
50087;BME280;35967;50.718;7.050;2023-08-06T15:49:39;100113.88;;;14.74;100.00
50087;BME280;35967;50.718;7.050;2023-08-06T15:59:42;100105.84;;;14.78;100.00
50087;BME280;35967;50.718;7.050;2023-08-06T16:09:46;100117.16;;;14.77;100.00
50087;BME280;35967;50.718;7.050;2023-08-06T16:19:51;100129.63;;;14.87;100.00
50087;BME280;35967;50.718;7.050;2023-08-06T16:29:55;100148.63;;;14.87;100.00
50087;BME280;35967;50.718;7.050;2023-08-06T16:40:00;100163.00;;;14.75;100.00
50087;BME280;35967;50.718;7.050;2023-08-06T16:50:04;100156.06;;;14.76;100.00
50087;BME280;35967;50.718;7.050;2023-08-06T17:00:12;100166.44;;;14.57;100.00
50087;BME280;35967;50.718;7.050;2023-08-06T17:10:16;100182.47;;;14.46;100.00
50087;BME280;35967;50.718;7.050;2023-08-06T17:20:23;100181.97;;;14.38;100.00
50087;BME280;35967;50.718;7.050;2023-08-06T17:30:27;100195.28;;;14.30;100.00
50087;BME280;35967;50.718;7.050;2023-08-06T17:40:30;100203.94;;;14.10;100.00
50087;BME280;35967;50.718;7.050;2023-08-06T17:50:34;100216.69;;;13.94;100.00
50087;BME280;35967;50.718;7.050;2023-08-06T18:00:38;100239.72;;;14.00;100.00
50087;BME280;35967;50.718;7.050;2023-08-06T18:10:42;100251.69;;;14.02;100.00
50087;BME280;35967;50.718;7.050;2023-08-06T18:20:45;100261.53;;;13.94;100.00
50087;BME280;35967;50.718;7.050;2023-08-06T18:30:51;100276.56;;;13.86;100.00
50087;BME280;35967;50.718;7.050;2023-08-06T18:40:56;100291.94;;;13.68;100.00
50087;BME280;35967;50.718;7.050;2023-08-06T18:51:00;100313.25;;;13.53;100.00
50087;BME280;35967;50.718;7.050;2023-08-06T19:01:09;100333.31;;;13.46;100.00
50087;BME280;35967;50.718;7.050;2023-08-06T19:11:14;100333.09;;;13.29;100.00
50087;BME280;35967;50.718;7.050;2023-08-06T19:21:17;100361.53;;;13.29;100.00
50087;BME280;35967;50.718;7.050;2023-08-06T19:31:28;100376.78;;;13.13;100.00
50087;BME280;35967;50.718;7.050;2023-08-06T19:41:32;100386.59;;;13.26;100.00
50087;BME280;35967;50.718;7.050;2023-08-06T19:51:36;100392.06;;;13.19;100.00
50087;BME280;35967;50.718;7.050;2023-08-06T20:01:43;100399.91;;;13.16;100.00
50087;BME280;35967;50.718;7.050;2023-08-06T20:11:59;100401.69;;;13.15;100.00
50087;BME280;35967;50.718;7.050;2023-08-06T20:22:02;100418.16;;;13.13;100.00
50087;BME280;35967;50.718;7.050;2023-08-06T20:32:11;100422.22;;;13.18;100.00
50087;BME280;35967;50.718;7.050;2023-08-06T20:42:14;100423.34;;;13.11;100.00
50087;BME280;35967;50.718;7.050;2023-08-06T20:52:20;100435.75;;;13.01;100.00
50087;BME280;35967;50.718;7.050;2023-08-06T21:02:27;100448.75;;;13.00;100.00
50087;BME280;35967;50.718;7.050;2023-08-06T21:12:32;100446.09;;;13.01;100.00
50087;BME280;35967;50.718;7.050;2023-08-06T21:22:35;100453.03;;;13.01;100.00
50087;BME280;35967;50.718;7.050;2023-08-06T21:32:46;100456.38;;;13.03;100.00
50087;BME280;35967;50.718;7.050;2023-08-06T21:42:49;100462.56;;;12.99;100.00
50087;BME280;35967;50.718;7.050;2023-08-06T21:52:53;100471.31;;;12.94;100.00
50087;BME280;35967;50.718;7.050;2023-08-06T22:02:58;100477.41;;;12.92;100.00
50087;BME280;35967;50.718;7.050;2023-08-06T22:13:05;100457.94;;;12.83;100.00
50087;BME280;35967;50.718;7.050;2023-08-06T22:23:08;100453.00;;;12.77;100.00
50087;BME280;35967;50.718;7.050;2023-08-06T22:33:12;100446.22;;;12.73;100.00
50087;BME280;35967;50.718;7.050;2023-08-06T22:43:22;100441.06;;;12.73;100.00
50087;BME280;35967;50.718;7.050;2023-08-06T22:53:26;100449.59;;;12.75;100.00
50087;BME280;35967;50.718;7.050;2023-08-06T23:03:29;100451.97;;;12.81;100.00
50087;BME280;35967;50.718;7.050;2023-08-06T23:13:34;100454.34;;;12.87;100.00
50087;BME280;35967;50.718;7.050;2023-08-06T23:23:37;100455.56;;;12.77;100.00
50087;BME280;35967;50.718;7.050;2023-08-06T23:33:42;100456.72;;;12.68;100.00
50087;BME280;35967;50.718;7.050;2023-08-06T23:43:45;100451.50;;;12.70;100.00
50087;BME280;35967;50.718;7.050;2023-08-06T23:53:49;100456.19;;;12.84;100.00
